createdAt,value
2019-04-10T00:02:07.082Z,68.70
2019-04-10T00:04:35.460Z,69.50
2019-04-10T00:07:12.754Z,70.00
2019-04-10T00:09:34.936Z,70.00
2019-04-10T00:12:03.957Z,70.20
2019-04-10T00:14:32.464Z,70.60
2019-04-10T00:17:00.854Z,70.90
2019-04-10T00:19:29.278Z,71.20
2019-04-10T00:21:57.825Z,71.50
2019-04-10T00:24:26.173Z,71.60
2019-04-10T00:26:54.579Z,71.90
2019-04-10T00:29:22.978Z,72.50
2019-04-10T00:31:51.388Z,73.20
2019-04-10T00:34:19.773Z,74.00
2019-04-10T00:36:48.892Z,74.20
2019-04-10T00:39:18.067Z,74.70
2019-04-10T00:41:46.540Z,74.80
2019-04-10T00:44:15.325Z,75.40
2019-04-10T00:46:43.692Z,75.80
2019-04-10T00:49:12.010Z,75.70
2019-04-10T00:51:41.530Z,76.10
2019-04-10T00:54:10.003Z,76.00
2019-04-10T00:56:38.951Z,76.30
2019-04-10T00:59:08.763Z,76.40
2019-04-10T01:01:37.786Z,76.70
2019-04-10T01:04:07.092Z,77.10
2019-04-10T01:06:36.221Z,77.50
2019-04-10T01:09:07.612Z,78.20
2019-04-10T01:11:36.144Z,78.40
2019-04-10T01:14:05.385Z,78.80
2019-04-10T01:16:33.974Z,79.20
2019-04-10T01:19:02.362Z,79.10
2019-04-10T01:21:30.956Z,79.20
2019-04-10T01:23:59.495Z,79.30
2019-04-10T01:26:28.242Z,79.40
2019-04-10T01:28:57.485Z,79.80
2019-04-10T01:31:26.767Z,80.00
2019-04-10T01:33:55.254Z,80.20
2019-04-10T01:36:23.852Z,81.20
2019-04-10T01:38:52.292Z,82.30
2019-04-10T01:41:20.660Z,83.30
2019-04-10T01:43:49.022Z,84.10
2019-04-10T01:46:17.979Z,84.20
2019-04-10T01:48:46.338Z,85.90
2019-04-10T01:51:15.155Z,87.20
2019-04-10T01:53:44.159Z,87.80
2019-04-10T01:56:24.774Z,88.50
2019-04-10T01:58:47.931Z,88.80
2019-04-10T02:01:21.043Z,89.70
2019-04-10T02:03:49.947Z,90.30
2019-04-10T02:06:18.899Z,90.40
2019-04-10T02:08:47.837Z,90.60
2019-04-10T02:11:16.199Z,90.60
2019-04-10T02:13:44.631Z,90.80
2019-04-10T02:16:13.016Z,90.60
2019-04-10T02:21:22.167Z,90.50
2019-04-10T02:23:52.400Z,90.80
2019-04-10T02:26:21.291Z,90.90
2019-04-10T02:28:59.542Z,90.80
2019-04-10T02:31:28.624Z,91.00
2019-04-10T02:33:59.900Z,91.20
2019-04-10T02:36:31.054Z,91.40
2019-04-10T02:39:10.086Z,91.60
2019-04-10T02:41:29.694Z,91.50
2019-04-10T02:43:59.827Z,91.70
2019-04-10T02:46:29.295Z,91.90
2019-04-10T02:48:58.101Z,91.70
2019-04-10T02:51:27.078Z,92.00
2019-04-10T02:53:58.151Z,92.00
2019-04-10T02:56:26.595Z,91.80
2019-04-10T02:58:56.573Z,91.70
2019-04-10T03:01:25.277Z,91.90
2019-04-10T03:03:55.501Z,92.00
2019-04-10T03:06:27.248Z,92.00
2019-04-10T03:09:12.381Z,92.00
2019-04-10T03:11:27.813Z,92.10
2019-04-10T03:13:56.079Z,92.30
2019-04-10T03:16:24.516Z,92.30
2019-04-10T03:18:54.873Z,92.20
2019-04-10T03:21:23.283Z,92.30
2019-04-10T03:23:51.790Z,92.60
2019-04-10T03:26:20.106Z,92.70
2019-04-10T03:28:49.373Z,92.80
2019-04-10T03:31:19.861Z,93.00
2019-04-10T03:33:55.269Z,93.10
2019-04-10T03:36:23.218Z,93.20
2019-04-10T03:38:58.591Z,93.50
2019-04-10T03:41:21.758Z,93.60
2019-04-10T03:43:50.221Z,93.80
2019-04-10T03:46:19.482Z,94.20
2019-04-10T03:48:47.909Z,94.20
2019-04-10T03:51:16.581Z,94.40
2019-04-10T03:53:46.698Z,94.70
2019-04-10T03:56:15.781Z,94.80
2019-04-10T03:58:44.199Z,94.80
2019-04-10T04:01:14.486Z,94.80
2019-04-10T04:03:43.242Z,95.00
2019-04-10T04:06:11.686Z,95.40
2019-04-10T04:08:40.064Z,95.20
2019-04-10T04:11:09.194Z,95.00
2019-04-10T04:13:37.629Z,95.40
2019-04-10T04:16:06.742Z,95.80
2019-04-10T04:18:35.334Z,94.40
2019-04-10T04:21:03.788Z,94.70
2019-04-10T04:23:32.309Z,95.10
2019-04-10T04:26:00.981Z,95.00
2019-04-10T04:28:29.817Z,95.20
2019-04-10T04:30:58.871Z,95.40
2019-04-10T04:33:27.660Z,95.30
2019-04-10T04:35:56.238Z,95.60
2019-04-10T04:38:25.623Z,95.60
2019-04-10T04:40:54.784Z,95.70
2019-04-10T04:43:23.376Z,95.70
2019-04-10T04:45:52.979Z,95.20
2019-04-10T04:48:21.964Z,95.10
2019-04-10T04:50:50.464Z,95.20
2019-04-10T04:53:18.834Z,95.30
2019-04-10T04:55:47.202Z,95.00
2019-04-10T04:58:16.118Z,95.20
2019-04-10T05:00:44.546Z,95.20
2019-04-10T05:03:13.087Z,95.20
2019-04-10T05:05:43.347Z,95.30
2019-04-10T05:08:11.824Z,95.30
2019-04-10T05:10:40.189Z,95.30
2019-04-10T05:13:08.554Z,95.40
2019-04-10T05:15:37.354Z,95.50
2019-04-10T05:18:06.248Z,95.40
2019-04-10T05:20:43.711Z,95.40
2019-04-10T05:23:04.723Z,95.10
2019-04-10T05:25:34.352Z,95.10
2019-04-10T05:28:03.640Z,95.10
2019-04-10T05:30:32.040Z,94.90
2019-04-10T05:33:00.393Z,94.70
2019-04-10T05:35:29.827Z,95.00
2019-04-10T05:37:58.289Z,95.00
2019-04-10T05:40:26.607Z,94.80
2019-04-10T05:42:55.503Z,94.70
2019-04-10T05:45:24.020Z,94.70
2019-04-10T05:47:52.852Z,94.30
2019-04-10T05:50:21.581Z,94.40
2019-04-10T05:52:50.014Z,94.70
2019-04-10T05:55:20.448Z,94.30
2019-04-10T05:57:49.003Z,94.10
2019-04-10T06:00:18.826Z,94.00
2019-04-10T06:02:48.164Z,94.50
2019-04-10T06:05:16.586Z,94.10
2019-04-10T06:07:45.456Z,94.10
2019-04-10T06:10:14.049Z,93.80
2019-04-10T06:12:42.719Z,93.80
2019-04-10T06:15:11.180Z,93.70
2019-04-10T06:17:40.604Z,93.90
2019-04-10T06:20:09.238Z,93.80
2019-04-10T06:22:38.888Z,93.70
2019-04-10T06:25:09.307Z,93.90
2019-04-10T06:27:37.317Z,93.80
2019-04-10T06:30:07.892Z,94.00
2019-04-10T06:32:36.214Z,94.30
2019-04-10T06:35:05.842Z,94.20
2019-04-10T06:37:34.530Z,94.30
2019-04-10T06:40:12.725Z,94.40
2019-04-10T06:42:44.548Z,94.10
2019-04-10T06:45:05.626Z,94.00
2019-04-10T06:47:34.018Z,94.20
2019-04-10T06:50:04.361Z,93.60
2019-04-10T06:52:32.794Z,93.80
2019-04-10T06:55:01.234Z,93.70
2019-04-10T06:57:30.540Z,93.70
2019-04-10T06:59:59.786Z,93.60
2019-04-10T07:02:31.598Z,93.50
2019-04-10T07:05:04.708Z,93.60
2019-04-10T07:07:43.429Z,93.10
2019-04-10T07:09:59.938Z,93.00
2019-04-10T07:12:32.891Z,92.80
2019-04-10T07:14:59.646Z,92.80
2019-04-10T07:17:29.246Z,93.00
2019-04-10T07:19:57.645Z,92.60
2019-04-10T07:22:26.887Z,92.80
2019-04-10T07:24:56.360Z,92.40
2019-04-10T07:27:24.903Z,92.10
2019-04-10T07:29:57.398Z,92.40
2019-04-10T07:32:24.362Z,92.60
2019-04-10T07:34:56.451Z,92.10
2019-04-10T07:37:24.538Z,92.50
2019-04-10T07:39:53.000Z,91.80
2019-04-10T07:42:30.443Z,91.80
2019-04-10T07:44:51.460Z,91.50
2019-04-10T07:47:21.173Z,91.40
2019-04-10T07:49:50.333Z,91.50
2019-04-10T07:52:21.075Z,91.50
2019-04-10T07:54:48.764Z,91.40
2019-04-10T07:57:17.182Z,91.00
2019-04-10T07:59:45.563Z,91.00
2019-04-10T08:02:18.109Z,90.80
2019-04-10T08:04:47.328Z,90.50
2019-04-10T08:07:27.646Z,90.90
2019-04-10T08:09:46.364Z,90.70
2019-04-10T08:12:15.541Z,90.80
2019-04-10T08:14:44.281Z,90.70
2019-04-10T08:17:12.675Z,90.30
2019-04-10T08:19:41.179Z,90.40
2019-04-10T08:22:10.262Z,90.50
2019-04-10T08:24:38.690Z,90.60
2019-04-10T08:27:07.405Z,90.20
2019-04-10T08:29:39.293Z,89.10
2019-04-10T08:32:07.788Z,88.20
2019-04-10T08:34:36.170Z,88.20
2019-04-10T08:37:04.536Z,87.60
2019-04-10T08:39:40.172Z,86.20
2019-04-10T08:42:03.173Z,86.70
2019-04-10T08:44:31.895Z,84.60
2019-04-10T08:47:00.348Z,85.30
2019-04-10T08:49:28.699Z,83.50
2019-04-10T08:51:57.863Z,84.10
2019-04-10T08:54:26.276Z,84.60
2019-04-10T08:56:56.800Z,85.50
2019-04-10T08:59:25.272Z,84.90
2019-04-10T09:01:53.759Z,84.20
2019-04-10T09:04:22.145Z,84.80
2019-04-10T09:06:51.529Z,84.80
2019-04-10T09:09:19.959Z,83.60
2019-04-10T09:11:49.308Z,83.30
2019-04-10T09:14:17.795Z,82.10
2019-04-10T09:16:46.852Z,81.20
2019-04-10T09:19:16.096Z,80.40
2019-04-10T09:21:45.678Z,80.80
2019-04-10T09:24:15.323Z,82.50
2019-04-10T09:26:44.549Z,82.90
2019-04-10T09:29:14.067Z,83.40
2019-04-10T09:31:42.457Z,83.10
2019-04-10T09:34:11.763Z,82.70
2019-04-10T09:36:40.229Z,83.10
2019-04-10T09:39:09.527Z,82.40
2019-04-10T09:41:39.583Z,82.20
2019-04-10T09:44:07.971Z,81.60
2019-04-10T09:46:37.333Z,81.20
2019-04-10T09:49:06.891Z,82.30
2019-04-10T09:51:36.158Z,80.70
2019-04-10T09:54:05.586Z,82.60
2019-04-10T09:56:34.323Z,81.00
2019-04-10T09:59:02.870Z,81.50
2019-04-10T10:01:31.306Z,81.60
2019-04-10T10:03:59.721Z,82.00
2019-04-10T10:06:32.101Z,80.60
2019-04-10T10:09:00.529Z,80.90
2019-04-10T10:11:34.060Z,80.70
2019-04-10T10:14:06.174Z,82.00
2019-04-10T10:16:35.773Z,82.10
2019-04-10T10:19:07.965Z,81.90
2019-04-10T10:21:36.661Z,82.10
2019-04-10T10:24:10.962Z,83.30
2019-04-10T10:26:44.512Z,81.80
2019-04-10T10:29:13.855Z,81.40
2019-04-10T10:31:44.373Z,81.50
2019-04-10T10:34:12.830Z,81.20
2019-04-10T10:36:45.069Z,81.10
2019-04-10T10:39:19.026Z,82.10
2019-04-10T10:41:49.013Z,81.30
2019-04-10T10:44:17.410Z,79.70
2019-04-10T10:46:45.833Z,79.40
2019-04-10T10:49:14.198Z,78.80
2019-04-10T10:51:42.645Z,78.90
2019-04-10T10:54:10.977Z,78.90
2019-04-10T10:56:39.405Z,77.50
2019-04-10T10:59:07.809Z,78.00
2019-04-10T11:01:36.243Z,76.90
2019-04-10T11:04:04.797Z,77.80
2019-04-10T11:06:33.231Z,78.00
2019-04-10T11:09:01.972Z,77.50
2019-04-10T11:11:30.788Z,77.60
2019-04-10T11:13:59.241Z,77.40
2019-04-10T11:16:27.729Z,78.00
2019-04-10T11:18:57.633Z,79.10
2019-04-10T11:21:27.370Z,78.40
2019-04-10T11:23:55.948Z,77.80
2019-04-10T11:26:25.649Z,76.80
2019-04-10T11:28:55.708Z,77.50
2019-04-10T11:31:25.191Z,76.40
2019-04-10T11:33:55.842Z,76.60
2019-04-10T11:36:23.712Z,75.70
2019-04-10T11:38:54.856Z,76.00
2019-04-10T11:41:23.328Z,74.80
2019-04-10T11:43:52.656Z,74.50
2019-04-10T11:46:22.718Z,74.20
2019-04-10T11:48:54.177Z,73.90
2019-04-10T11:51:23.520Z,72.70
2019-04-10T11:53:56.405Z,72.80
2019-04-10T11:56:23.639Z,72.50
2019-04-10T11:58:56.308Z,73.40
2019-04-10T12:01:23.441Z,73.20
2019-04-10T12:03:55.035Z,72.50
2019-04-10T12:06:25.002Z,73.80
2019-04-10T12:09:13.255Z,73.20
2019-04-10T12:11:23.104Z,72.00
2019-04-10T12:13:51.536Z,71.60
2019-04-10T12:16:20.814Z,72.70
2019-04-10T12:18:49.336Z,72.40
2019-04-10T12:21:17.793Z,72.00
2019-04-10T12:23:47.266Z,70.70
2019-04-10T12:26:15.880Z,71.80
2019-04-10T12:28:44.389Z,71.30
2019-04-10T12:31:12.842Z,70.80
2019-04-10T12:33:42.223Z,71.30
2019-04-10T12:36:11.852Z,70.70
2019-04-10T12:38:41.254Z,71.60
2019-04-10T12:41:10.951Z,71.20
2019-04-10T12:43:41.077Z,70.40
2019-04-10T12:46:10.674Z,70.00
2019-04-10T12:48:39.177Z,70.00
2019-04-10T12:51:07.739Z,70.10
2019-04-10T12:53:36.185Z,72.00
2019-04-10T12:56:04.552Z,71.10
2019-04-10T12:58:32.998Z,70.20
2019-04-10T13:01:02.507Z,70.90
2019-04-10T13:03:31.320Z,71.50
2019-04-10T13:05:59.850Z,72.10
2019-04-10T13:08:47.505Z,71.60
2019-04-10T13:10:58.382Z,70.30
2019-04-10T13:13:27.571Z,69.20
2019-04-10T13:15:59.220Z,70.00
2019-04-10T13:18:28.062Z,69.20
2019-04-10T13:20:56.498Z,69.50
2019-04-10T13:23:24.898Z,69.10
2019-04-10T13:25:59.133Z,69.40
2019-04-10T13:28:24.058Z,69.20
2019-04-10T13:30:54.111Z,69.00
2019-04-10T13:33:22.639Z,68.60
2019-04-10T13:35:51.213Z,67.40
2019-04-10T13:38:27.634Z,64.10
2019-04-10T13:40:50.113Z,57.70
2019-04-10T13:43:18.583Z,54.60
2019-04-10T13:45:46.971Z,52.30
2019-04-10T13:48:16.420Z,50.90
2019-04-10T13:50:44.861Z,50.00
2019-04-10T13:53:13.463Z,47.00
2019-04-10T13:55:42.249Z,47.40
2019-04-10T13:58:10.820Z,46.30
2019-04-10T14:00:41.144Z,48.70
2019-04-10T14:03:10.129Z,49.80
2019-04-10T14:05:39.085Z,51.50
2019-04-10T14:08:08.419Z,51.10
2019-04-10T14:10:39.353Z,52.70
2019-04-10T14:13:07.458Z,53.20
2019-04-10T14:15:35.975Z,52.70
2019-04-10T14:18:04.470Z,52.40
2019-04-10T14:20:32.890Z,55.20
2019-04-10T14:23:08.607Z,55.30
2019-04-10T14:25:42.091Z,56.00
2019-04-10T14:28:11.013Z,57.50
2019-04-10T14:30:41.060Z,57.20
2019-04-10T14:33:10.510Z,57.00
2019-04-10T14:35:39.092Z,57.30
2019-04-10T14:38:08.494Z,58.10
2019-04-10T14:40:37.986Z,57.00
2019-04-10T14:43:07.370Z,57.50
2019-04-10T14:45:37.396Z,57.90
2019-04-10T14:48:05.840Z,58.20
2019-04-10T14:50:34.265Z,58.00
2019-04-10T14:53:02.731Z,58.80
2019-04-10T14:55:31.118Z,59.10
2019-04-10T14:57:59.555Z,60.40
2019-04-10T15:00:32.878Z,61.00
2019-04-10T15:03:02.241Z,60.30
2019-04-10T15:05:30.632Z,59.80
2019-04-10T15:07:59.944Z,59.70
2019-04-10T15:10:28.322Z,59.80
2019-04-10T15:13:07.497Z,59.20
2019-04-10T15:15:26.823Z,59.70
2019-04-10T15:17:56.088Z,58.50
2019-04-10T15:20:24.986Z,58.40
2019-04-10T15:22:53.508Z,57.80
2019-04-10T15:25:22.997Z,56.10
2019-04-10T15:27:51.707Z,55.90
2019-04-10T15:30:20.391Z,54.60
2019-04-10T15:32:49.724Z,53.70
2019-04-10T15:35:18.200Z,53.40
2019-04-10T15:37:47.255Z,53.10
2019-04-10T15:40:20.918Z,51.90
2019-04-10T15:42:46.030Z,52.00
2019-04-10T15:45:14.781Z,52.70
2019-04-10T15:47:50.688Z,55.00
2019-04-10T15:50:15.814Z,56.70
2019-04-10T15:52:45.144Z,56.30
2019-04-10T15:55:13.609Z,56.30
2019-04-10T15:57:50.013Z,55.80
2019-04-10T16:00:12.762Z,54.30
2019-04-10T16:02:41.280Z,55.00
2019-04-10T16:05:09.706Z,54.10
2019-04-10T16:07:38.324Z,53.60
2019-04-10T16:10:28.654Z,51.80
2019-04-10T16:13:04.589Z,50.70
2019-04-10T16:15:34.780Z,49.20
2019-04-10T16:18:11.395Z,47.50
2019-04-10T16:20:40.959Z,48.10
2019-04-10T16:23:14.678Z,48.30
2019-04-10T16:25:44.876Z,46.70
2019-04-10T16:28:14.547Z,46.60
2019-04-10T16:30:44.185Z,47.30
2019-04-10T16:33:12.481Z,47.70
2019-04-10T16:35:40.943Z,47.40
2019-04-10T16:38:09.302Z,48.80
2019-04-10T16:40:38.327Z,50.20
2019-04-10T16:43:07.855Z,51.60
2019-04-10T16:45:36.433Z,53.20
2019-04-10T16:48:04.798Z,55.40
2019-04-10T16:50:34.183Z,57.60
2019-04-10T16:53:03.373Z,59.40
2019-04-10T16:55:32.568Z,59.50
2019-04-10T16:58:01.257Z,59.60
2019-04-10T17:00:29.714Z,59.60
2019-04-10T17:02:58.070Z,60.10
2019-04-10T17:05:26.506Z,60.30
2019-04-10T17:07:55.289Z,61.60
2019-04-10T17:10:27.347Z,63.20
2019-04-10T17:12:56.294Z,64.10
2019-04-10T17:15:24.660Z,64.90
2019-04-10T17:17:53.020Z,65.20
2019-04-10T17:20:22.528Z,66.70
2019-04-10T17:22:51.973Z,66.50
2019-04-10T17:25:24.328Z,66.70
2019-04-10T17:27:52.756Z,67.10
2019-04-10T17:30:21.960Z,68.20
2019-04-10T17:32:50.443Z,67.70
2019-04-10T17:35:19.347Z,68.30
2019-04-10T17:37:47.852Z,69.10
2019-04-10T17:40:27.354Z,69.90
2019-04-10T17:42:46.486Z,70.70
2019-04-10T17:45:14.904Z,70.70
2019-04-10T17:47:43.474Z,70.60
2019-04-10T17:50:14.126Z,71.50
2019-04-10T17:52:42.955Z,71.80
2019-04-10T17:55:11.519Z,72.70
2019-04-10T17:57:43.357Z,74.10
2019-04-10T18:00:20.815Z,74.40
2019-04-10T18:02:49.184Z,74.90
2019-04-10T18:05:18.189Z,75.50
2019-04-10T18:07:48.189Z,74.80
2019-04-10T18:10:16.703Z,76.30
2019-04-10T18:12:46.065Z,76.20
2019-04-10T18:15:15.638Z,76.90
2019-04-10T18:17:44.133Z,77.40
2019-04-10T18:20:12.641Z,76.50
2019-04-10T18:22:44.910Z,77.30
2019-04-10T18:25:20.170Z,76.80
2019-04-10T18:27:49.091Z,77.10
2019-04-10T18:30:17.742Z,77.60
2019-04-10T18:32:47.622Z,78.40
2019-04-10T18:35:16.407Z,79.00
2019-04-10T18:37:47.674Z,79.70
2019-04-10T18:40:15.946Z,79.80
2019-04-10T18:42:47.487Z,80.00
2019-04-10T18:45:15.932Z,80.20
2019-04-10T18:47:44.354Z,80.80
2019-04-10T18:50:13.000Z,81.10
2019-04-10T18:52:41.514Z,81.70
2019-04-10T18:55:10.040Z,81.80
2019-04-10T18:57:38.962Z,83.60
2019-04-10T19:00:19.720Z,83.60
2019-04-10T19:02:49.760Z,84.20
2019-04-10T19:05:23.544Z,84.60
2019-04-10T19:07:52.072Z,84.40
2019-04-10T19:10:22.142Z,84.30
2019-04-10T19:12:50.807Z,84.10
2019-04-10T19:15:20.298Z,84.50
2019-04-10T19:17:49.029Z,85.70
2019-04-10T19:20:18.022Z,86.20
2019-04-10T19:22:46.725Z,86.80
2019-04-10T19:25:16.450Z,87.10
2019-04-10T19:27:44.807Z,87.10
2019-04-10T19:30:23.618Z,86.70
2019-04-10T19:32:52.077Z,87.30
2019-04-10T19:35:21.381Z,87.70
2019-04-10T19:37:51.290Z,88.10
2019-04-10T19:40:20.027Z,88.50
2019-04-10T19:42:51.578Z,87.70
2019-04-10T19:45:20.196Z,88.00
2019-04-10T19:47:48.599Z,89.50
2019-04-10T19:50:17.331Z,89.70
2019-04-10T19:52:46.776Z,89.00
2019-04-10T19:55:15.618Z,89.30
2019-04-10T19:57:44.096Z,89.00
2019-04-10T20:00:12.746Z,89.20
2019-04-10T20:02:41.734Z,89.70
2019-04-10T20:05:10.405Z,89.20
2019-04-10T20:07:39.430Z,88.70
2019-04-10T20:10:08.791Z,89.00
2019-04-10T20:12:37.365Z,89.10
2019-04-10T20:15:10.021Z,90.00
2019-04-10T20:17:38.517Z,90.10
2019-04-10T20:20:07.029Z,90.30
2019-04-10T20:22:35.363Z,90.40
2019-04-10T20:25:03.929Z,90.70
2019-04-10T20:27:32.282Z,90.20
2019-04-10T20:30:01.600Z,90.70
2019-04-10T20:32:30.299Z,90.30
2019-04-10T20:34:58.757Z,90.20
2019-04-10T20:37:27.206Z,90.10
2019-04-10T20:39:55.902Z,90.00
2019-04-10T20:42:25.244Z,90.20
2019-04-10T20:44:54.067Z,90.20
2019-04-10T20:47:22.640Z,90.40
2019-04-10T20:49:51.229Z,90.70
2019-04-10T20:52:20.257Z,90.60
2019-04-10T20:54:48.921Z,90.80
2019-04-10T20:57:17.411Z,90.60
2019-04-10T20:59:45.800Z,90.70
2019-04-10T21:02:14.258Z,90.80
2019-04-10T21:04:53.502Z,90.90
2019-04-10T21:07:12.751Z,91.00
2019-04-10T21:09:41.729Z,91.20
2019-04-10T21:12:13.144Z,91.40
2019-04-10T21:14:40.943Z,91.30
2019-04-10T21:17:09.399Z,91.10
2019-04-10T21:19:37.790Z,91.30
2019-04-10T21:22:06.081Z,91.30
2019-04-10T21:24:35.656Z,91.30
2019-04-10T21:27:04.049Z,91.60
2019-04-10T21:29:50.558Z,92.00
2019-04-10T21:32:26.303Z,91.80
2019-04-10T21:34:55.494Z,92.00
2019-04-10T21:37:24.263Z,92.30
2019-04-10T21:39:52.756Z,92.60
2019-04-10T21:42:23.858Z,92.60
2019-04-10T21:44:51.320Z,92.70
2019-04-10T21:47:19.725Z,92.70
2019-04-10T21:49:48.483Z,92.60
2019-04-10T21:52:16.869Z,92.50
2019-04-10T21:54:51.136Z,92.60
2019-04-10T21:57:16.171Z,92.90
2019-04-10T21:59:45.507Z,92.90
2019-04-10T22:02:15.258Z,92.90
2019-04-10T22:04:43.627Z,92.70
2019-04-10T22:07:20.360Z,92.60
2019-04-10T22:09:50.819Z,92.60
2019-04-10T22:12:29.790Z,92.90
2019-04-10T22:14:50.858Z,92.90
2019-04-10T22:17:19.505Z,93.10
2019-04-10T22:19:48.097Z,93.20
2019-04-10T22:22:16.588Z,93.00
2019-04-10T22:24:44.901Z,93.00
2019-04-10T22:27:13.282Z,93.10
2019-04-10T22:29:42.668Z,93.10
2019-04-10T22:32:11.109Z,93.20
2019-04-10T22:34:39.534Z,93.30
2019-04-10T22:37:08.029Z,93.30
2019-04-10T22:39:36.469Z,93.30
2019-04-10T22:42:05.369Z,93.20
2019-04-10T22:44:40.243Z,93.00
2019-04-10T22:47:05.077Z,93.40
2019-04-10T22:49:33.613Z,93.80
2019-04-10T22:52:02.613Z,93.20
2019-04-10T22:54:31.078Z,93.30
2019-04-10T22:57:00.515Z,93.20
2019-04-10T22:59:29.034Z,93.40
2019-04-10T23:02:02.445Z,93.30
2019-04-10T23:04:28.561Z,93.50
2019-04-10T23:06:57.702Z,93.60
2019-04-10T23:09:26.424Z,93.60
2019-04-10T23:11:56.054Z,92.90
2019-04-10T23:14:24.874Z,92.70
2019-04-10T23:16:53.220Z,92.70
2019-04-10T23:19:22.407Z,92.50
2019-04-10T23:21:50.871Z,92.80
2019-04-10T23:24:19.167Z,93.20
2019-04-10T23:26:47.534Z,93.20
2019-04-10T23:29:16.005Z,93.70
2019-04-10T23:31:45.849Z,93.20
2019-04-10T23:34:14.619Z,93.00
2019-04-10T23:36:42.996Z,93.20
2019-04-10T23:39:12.273Z,93.30
2019-04-10T23:41:40.749Z,93.30
2019-04-10T23:44:09.147Z,93.10
2019-04-10T23:46:38.800Z,92.90
2019-04-10T23:49:07.321Z,93.00
2019-04-10T23:51:36.881Z,93.00
2019-04-10T23:54:05.303Z,92.90
2019-04-10T23:56:33.673Z,93.00
2019-04-10T23:59:02.449Z,93.60
